Time;durP1;ratioP1;P1;durP2;ratioP2;P2;SDS_P1;SDS_P2;PMS_P1;PMS_P2;Temp;Humidity;BMP_temperature;BMP_pressure;BME280_temperature;BME280_humidity;BME280_pressure;Samples;Min_cycle;Max_cycle;Signal;HPM_P1;HPM_P2
2021/10/23 00:00:06;;;;;;;26.17;18.58;;;;;;;12.84;100.00;98265.66;4978926;29;20039;-80
2021/10/23 00:02:32;;;;;;;33.03;22.00;;;;;;;12.82;100.00;98273.41;4977285;29;20015;-77
2021/10/23 00:04:57;;;;;;;28.40;20.42;;;;;;;12.81;100.00;98282.75;4959197;29;20100;-78
2021/10/23 00:07:22;;;;;;;31.40;21.55;;;;;;;12.78;100.00;98280.59;4975664;29;20059;-77
2021/10/23 00:09:48;;;;;;;29.10;20.95;;;;;;;12.92;100.00;98283.38;4976138;28;20057;-79
2021/10/23 00:12:13;;;;;;;28.52;21.00;;;;;;;12.95;100.00;98288.28;4975086;29;20027;-77
2021/10/23 00:14:39;;;;;;;32.35;20.85;;;;;;;12.97;100.00;98290.72;4954724;29;20019;-76
2021/10/23 00:17:04;;;;;;;31.42;22.55;;;;;;;12.92;100.00;98294.38;4964485;29;20034;-76
2021/10/23 00:19:30;;;;;;;34.33;23.20;;;;;;;12.94;100.00;98302.31;4969966;28;20065;-78
2021/10/23 00:21:56;;;;;;;33.45;21.40;;;;;;;12.93;100.00;98300.69;4979902;28;20023;-79
2021/10/23 00:24:21;;;;;;;35.08;23.73;;;;;;;12.84;100.00;98306.06;4979014;28;20019;-80
2021/10/23 00:26:47;;;;;;;38.83;24.75;;;;;;;12.77;100.00;98303.69;4957860;29;20020;-80
2021/10/23 00:29:12;;;;;;;40.78;25.52;;;;;;;12.73;100.00;98302.66;4975286;29;20055;-80
2021/10/23 00:31:38;;;;;;;39.83;27.45;;;;;;;12.68;100.00;98300.03;4976548;29;20007;-80
2021/10/23 00:34:03;;;;;;;37.40;25.27;;;;;;;12.73;100.00;98304.59;4976109;28;20031;-80
2021/10/23 00:36:29;;;;;;;41.83;27.27;;;;;;;12.76;100.00;98299.31;4975026;29;20028;-81
2021/10/23 00:38:54;;;;;;;36.38;25.45;;;;;;;12.74;100.00;98304.31;4977962;28;20003;-78
2021/10/23 00:41:20;;;;;;;36.05;25.98;;;;;;;12.75;100.00;98305.91;4977810;29;20087;-79
2021/10/23 00:43:47;;;;;;;35.03;23.67;;;;;;;12.81;100.00;98310.19;4976583;29;20038;-80
2021/10/23 00:46:13;;;;;;;36.17;25.35;;;;;;;12.77;100.00;98303.69;4979659;28;20023;-80
2021/10/23 00:48:39;;;;;;;39.20;25.30;;;;;;;12.75;100.00;98299.59;4979214;28;20031;-81
2021/10/23 00:51:04;;;;;;;37.53;25.33;;;;;;;12.73;100.00;98305.41;4979306;28;20090;-77
2021/10/23 00:53:30;;;;;;;35.85;25.33;;;;;;;12.74;100.00;98295.25;4978843;29;20023;-80
2021/10/23 00:55:55;;;;;;;43.15;24.85;;;;;;;12.79;100.00;98306.13;4979189;28;20050;-77
2021/10/23 00:58:21;;;;;;;30.80;22.88;;;;;;;12.75;100.00;98305.91;4971415;29;20091;-80
2021/10/23 01:00:46;;;;;;;34.97;22.92;;;;;;;12.76;100.00;98304.00;4972404;28;20019;-80
2021/10/23 01:03:13;;;;;;;35.80;22.73;;;;;;;12.68;100.00;98300.03;4975393;28;20039;-79
2021/10/23 01:05:38;;;;;;;35.85;23.48;;;;;;;12.71;100.00;98304.91;4977837;28;20007;-79
2021/10/23 01:08:04;;;;;;;34.05;23.23;;;;;;;12.66;100.00;98307.72;4973215;28;20050;-80
2021/10/23 01:10:29;;;;;;;32.80;22.20;;;;;;;12.78;100.00;98310.00;4970990;29;20011;-79
2021/10/23 01:12:57;;;;;;;30.58;21.70;;;;;;;12.84;100.00;98311.56;4968571;29;20095;-80
2021/10/23 01:15:28;;;;;;;29.90;22.30;;;;;;;12.80;100.00;98305.03;4931924;29;20019;-80
2021/10/23 01:17:55;;;;;;;38.95;23.05;;;;;;;12.83;100.00;98302.50;4965490;29;20027;-79
2021/10/23 01:20:22;;;;;;;33.35;22.95;;;;;;;12.81;100.00;98312.94;4962348;29;20035;-79
2021/10/23 01:22:49;;;;;;;36.42;23.13;;;;;;;12.75;100.00;98307.84;4978101;28;20027;-78
2021/10/23 01:25:15;;;;;;;33.42;23.25;;;;;;;12.77;100.00;98320.16;4979184;28;20023;-76
2021/10/23 01:27:41;;;;;;;33.30;24.00;;;;;;;12.74;100.00;98309.78;4979160;28;20024;-77
2021/10/23 01:30:10;;;;;;;31.02;22.27;;;;;;;12.71;100.00;98310.41;4979292;28;20038;-77
2021/10/23 01:32:36;;;;;;;32.90;22.75;;;;;;;12.73;100.00;98312.81;4979712;28;20047;-76
2021/10/23 01:35:02;;;;;;;30.75;23.15;;;;;;;12.77;100.00;98311.94;4979398;28;20046;-76
2021/10/23 01:37:38;;;;;;;34.00;23.70;;;;;;;12.74;100.00;98318.03;4979177;28;20016;-77
2021/10/23 01:40:06;;;;;;;35.58;24.05;;;;;;;12.67;100.00;98317.59;4981730;28;20075;-80
2021/10/23 01:42:32;;;;;;;32.55;22.92;;;;;;;12.71;100.00;98310.41;4980559;29;20031;-79
2021/10/23 01:44:58;;;;;;;31.90;22.55;;;;;;;12.72;100.00;98311.19;4980325;29;20042;-81
2021/10/23 01:47:23;;;;;;;33.92;24.35;;;;;;;12.62;100.00;98312.19;4982788;28;20055;-79
2021/10/23 01:49:49;;;;;;;37.75;24.38;;;;;;;12.58;100.00;98316.66;4983091;28;20025;-80
2021/10/23 01:52:14;;;;;;;34.35;23.92;;;;;;;12.57;100.00;98317.75;4982814;28;20022;-77
2021/10/23 01:54:40;;;;;;;35.13;24.83;;;;;;;12.55;100.00;98305.44;4982170;28;20039;-80
2021/10/23 01:57:06;;;;;;;36.47;25.88;;;;;;;12.47;100.00;98315.16;4982911;28;20027;-75
2021/10/23 01:59:31;;;;;;;36.50;25.52;;;;;;;12.41;100.00;98316.34;4982641;28;20055;-75
2021/10/23 02:01:56;;;;;;;35.65;25.20;;;;;;;12.40;100.00;98309.25;4964502;28;20054;-77
2021/10/23 02:04:22;;;;;;;38.60;25.45;;;;;;;12.40;100.00;98306.53;4980539;28;20043;-79
2021/10/23 02:06:47;;;;;;;36.17;24.73;;;;;;;12.39;100.00;98315.84;4964269;29;20019;-79
2021/10/23 02:09:13;;;;;;;32.75;23.73;;;;;;;12.41;100.00;98321.03;4975545;29;20083;-79
2021/10/23 02:11:38;;;;;;;34.20;23.92;;;;;;;12.31;100.00;98320.06;4980027;28;20034;-81
2021/10/23 02:14:04;;;;;;;39.38;25.45;;;;;;;12.28;100.00;98328.06;4965666;28;20011;-76
2021/10/23 02:16:29;;;;;;;34.30;24.05;;;;;;;12.30;100.00;98325.88;4981348;28;20015;-75
2021/10/23 02:18:54;;;;;;;35.47;24.83;;;;;;;12.35;100.00;98325.78;4982727;28;20046;-80
2021/10/23 02:21:20;;;;;;;33.30;24.15;;;;;;;12.46;100.00;98318.22;4982460;28;20165;-76
2021/10/23 02:23:45;;;;;;;38.17;24.90;;;;;;;12.53;100.00;98324.94;4980733;28;20023;-76
2021/10/23 02:26:11;;;;;;;38.00;24.83;;;;;;;12.48;100.00;98322.28;4982496;28;20031;-76
2021/10/23 02:28:36;;;;;;;37.72;24.52;;;;;;;12.47;100.00;98314.38;4982183;28;20029;-78
2021/10/23 02:31:02;;;;;;;35.70;25.20;;;;;;;12.34;100.00;98313.19;4982040;28;20018;-79
2021/10/23 02:33:27;;;;;;;36.95;25.42;;;;;;;12.24;100.00;98310.59;4982259;28;20031;-79
2021/10/23 02:35:53;;;;;;;35.38;24.00;;;;;;;12.17;100.00;98316.47;4980926;28;20004;-80
2021/10/23 02:38:18;;;;;;;34.15;23.77;;;;;;;12.13;100.00;98320.06;4971780;29;20046;-75
2021/10/23 02:40:44;;;;;;;37.50;25.00;;;;;;;12.08;100.00;98328.38;4981918;28;20043;-76
2021/10/23 02:43:09;;;;;;;33.63;23.48;;;;;;;12.06;100.00;98331.41;4982196;28;20019;-76
2021/10/23 02:45:35;;;;;;;34.35;23.60;;;;;;;12.03;100.00;98336.69;4981785;28;20023;-80
2021/10/23 02:48:01;;;;;;;39.63;25.33;;;;;;;12.05;100.00;98339.94;4982251;28;20732;-77
2021/10/23 02:50:27;;;;;;;37.20;23.63;;;;;;;12.05;100.00;98345.44;4980644;28;20031;-75
2021/10/23 02:52:53;;;;;;;34.58;23.95;;;;;;;12.08;100.00;98356.63;4982133;28;20411;-80
2021/10/23 02:55:20;;;;;;;39.90;26.75;;;;;;;12.06;100.00;98358.03;4981854;28;20019;-80
2021/10/23 02:57:45;;;;;;;51.40;30.08;;;;;;;12.05;100.00;98349.00;4981940;28;20035;-78
2021/10/23 03:00:11;;;;;;;58.65;32.42;;;;;;;12.05;100.00;98350.91;4982023;28;20030;-77
2021/10/23 03:02:37;;;;;;;58.10;33.88;;;;;;;12.15;100.00;98359.00;4982210;28;20027;-74
2021/10/23 03:05:04;;;;;;;66.40;34.50;;;;;;;12.13;100.00;98363.94;4981990;28;20012;-79
2021/10/23 03:07:30;;;;;;;54.17;31.88;;;;;;;12.17;100.00;98367.75;4981990;28;20027;-75
2021/10/23 03:09:56;;;;;;;58.40;31.70;;;;;;;12.15;100.00;98369.97;4981879;28;20096;-76
2021/10/23 03:12:22;;;;;;;48.78;28.17;;;;;;;12.19;100.00;98373.75;4981831;28;20014;-79
2021/10/23 03:14:47;;;;;;;53.92;29.58;;;;;;;12.20;100.00;98380.88;4981739;28;20016;-80
2021/10/23 03:17:13;;;;;;;42.08;25.90;;;;;;;12.23;100.00;98383.03;4981555;28;20035;-77
2021/10/23 03:19:38;;;;;;;42.97;25.58;;;;;;;12.18;100.00;98380.34;4965125;28;20042;-77
2021/10/23 03:22:04;;;;;;;35.45;23.30;;;;;;;12.15;100.00;98383.69;4980795;28;20019;-76
2021/10/23 03:24:29;;;;;;;35.45;23.63;;;;;;;12.13;100.00;98391.38;4981275;28;20008;-74
2021/10/23 03:26:55;;;;;;;36.42;25.73;;;;;;;12.13;100.00;98388.63;4980547;28;20047;-75
2021/10/23 03:29:20;;;;;;;32.88;21.58;;;;;;;12.13;100.00;98396.84;4981071;28;20015;-72
2021/10/23 03:31:46;;;;;;;35.70;23.10;;;;;;;12.11;100.00;98394.44;4981858;28;20035;-73
2021/10/23 03:34:11;;;;;;;37.05;23.05;;;;;;;12.11;100.00;98405.41;4981847;28;20011;-72
2021/10/23 03:36:37;;;;;;;32.75;21.63;;;;;;;12.11;100.00;98404.56;4981650;28;20038;-73
2021/10/23 03:39:03;;;;;;;32.58;22.60;;;;;;;12.04;100.00;98404.09;4981491;28;20011;-72
2021/10/23 03:41:29;;;;;;;29.13;20.95;;;;;;;12.10;100.00;98409.25;4981433;28;20039;-75
2021/10/23 03:43:54;;;;;;;35.50;21.80;;;;;;;12.09;100.00;98412.28;4981311;28;20047;-73
2021/10/23 03:46:19;;;;;;;36.45;22.42;;;;;;;12.03;100.00;98418.94;4981343;28;20011;-73
2021/10/23 03:48:45;;;;;;;32.22;22.70;;;;;;;12.00;100.00;98414.03;4980918;28;20044;-73
2021/10/23 03:51:11;;;;;;;33.83;21.70;;;;;;;11.99;100.00;98424.19;4981362;28;20023;-72
2021/10/23 03:53:36;;;;;;;33.70;21.77;;;;;;;12.06;100.00;98418.38;4981265;28;20004;-74
2021/10/23 03:56:02;;;;;;;30.60;20.88;;;;;;;12.07;100.00;98430.94;4981242;28;20019;-72
2021/10/23 03:58:27;;;;;;;33.75;21.02;;;;;;;12.16;100.00;98430.00;4981167;28;20026;-77
2021/10/23 04:00:52;;;;;;;30.55;21.60;;;;;;;12.14;100.00;98428.66;4980353;28;20019;-75
2021/10/23 04:04:08;;;;;;;29.63;20.17;;;;;;;12.17;100.00;98430.81;4974189;28;20048;-77
2021/10/23 04:06:34;;;;;;;31.60;21.73;;;;;;;12.08;100.00;98438.06;4942586;28;20048;-73
2021/10/23 04:08:59;;;;;;;32.17;21.50;;;;;;;12.08;100.00;98438.88;4942698;28;20036;-73
2021/10/23 04:11:25;;;;;;;32.08;22.33;;;;;;;12.07;100.00;98441.91;4942749;28;20012;-73
2021/10/23 04:13:50;;;;;;;37.72;23.65;;;;;;;12.01;100.00;98448.56;4942601;28;20016;-72
2021/10/23 04:16:16;;;;;;;32.47;22.65;;;;;;;11.94;100.00;98437.94;4942572;28;20012;-72
2021/10/23 04:18:41;;;;;;;33.50;21.38;;;;;;;11.94;100.00;98448.09;4942567;28;20016;-73
2021/10/23 04:21:06;;;;;;;25.50;18.20;;;;;;;11.89;100.00;98440.75;4942226;28;20012;-72
2021/10/23 04:23:32;;;;;;;26.65;18.75;;;;;;;11.91;100.00;98444.00;4942339;28;20020;-72
2021/10/23 04:25:57;;;;;;;26.95;16.38;;;;;;;11.84;100.00;98445.50;4942248;28;20016;-73
2021/10/23 04:28:23;;;;;;;26.23;17.58;;;;;;;11.82;100.00;98454.00;4942345;28;20043;-72
2021/10/23 04:30:48;;;;;;;27.42;18.42;;;;;;;11.79;100.00;98451.84;4941565;28;20044;-72
2021/10/23 04:33:13;;;;;;;27.60;18.52;;;;;;;11.71;100.00;98460.69;4942644;28;20016;-71
2021/10/23 04:35:39;;;;;;;27.67;17.83;;;;;;;11.70;100.00;98468.09;4942215;28;20022;-72
2021/10/23 04:38:04;;;;;;;32.88;20.52;;;;;;;11.65;100.00;98457.16;4942012;28;20016;-72
2021/10/23 04:40:30;;;;;;;29.13;17.75;;;;;;;11.64;100.00;98465.66;4942192;28;20032;-72
2021/10/23 04:42:55;;;;;;;22.75;16.15;;;;;;;11.63;100.00;98464.84;4942011;28;20076;-72
2021/10/23 04:45:20;;;;;;;24.52;15.65;;;;;;;11.67;100.00;98459.59;4941974;28;20019;-73
2021/10/23 04:47:46;;;;;;;21.58;15.80;;;;;;;11.72;100.00;98465.06;4941974;28;20012;-73
2021/10/23 04:50:11;;;;;;;23.42;14.60;;;;;;;11.66;100.00;98468.94;4941820;28;20048;-73
2021/10/23 04:52:37;;;;;;;23.42;15.32;;;;;;;11.64;100.00;98463.75;4957324;28;20016;-72
2021/10/23 04:55:03;;;;;;;24.70;16.33;;;;;;;11.63;100.00;98469.50;4941907;28;20041;-72
2021/10/23 04:57:28;;;;;;;24.45;15.05;;;;;;;11.60;100.00;98465.44;4941785;28;20076;-73
2021/10/23 04:59:55;;;;;;;22.92;14.80;;;;;;;11.61;100.00;98461.59;4941845;28;20019;-72
2021/10/23 05:02:20;;;;;;;23.02;14.90;;;;;;;11.62;100.00;98465.16;4942084;28;20024;-72
2021/10/23 05:04:45;;;;;;;22.98;14.25;;;;;;;11.62;100.00;98473.38;4955578;28;20047;-78
2021/10/23 05:07:11;;;;;;;20.00;14.35;;;;;;;11.63;100.00;98470.31;4979679;28;20058;-78
2021/10/23 05:09:36;;;;;;;21.65;14.02;;;;;;;11.62;100.00;98478.84;4979317;28;20062;-79
2021/10/23 05:12:02;;;;;;;21.35;14.38;;;;;;;11.57;100.00;98476.97;4978910;29;20100;-80
2021/10/23 05:14:27;;;;;;;21.55;14.57;;;;;;;11.56;100.00;98491.75;4979274;28;20095;-76
2021/10/23 05:16:53;;;;;;;25.25;13.68;;;;;;;11.58;100.00;98492.31;4979389;28;20027;-75
2021/10/23 05:19:18;;;;;;;23.83;13.80;;;;;;;11.49;100.00;98490.47;4979775;28;20023;-76
2021/10/23 05:21:44;;;;;;;22.40;14.13;;;;;;;11.51;100.00;98494.56;4979250;28;20031;-74
2021/10/23 05:24:09;;;;;;;20.20;13.50;;;;;;;11.52;100.00;98498.94;4979787;28;21137;-72
2021/10/23 05:26:34;;;;;;;24.52;14.35;;;;;;;11.53;100.00;98506.03;4979286;28;20023;-77
2021/10/23 05:29:00;;;;;;;29.98;16.80;;;;;;;11.58;100.00;98508.75;4979721;28;20094;-74
2021/10/23 05:31:25;;;;;;;22.55;15.45;;;;;;;11.55;100.00;98517.53;4979606;28;20043;-75
2021/10/23 05:33:51;;;;;;;21.88;14.48;;;;;;;11.48;100.00;98511.56;4979976;28;20016;-73
2021/10/23 05:36:16;;;;;;;21.38;14.77;;;;;;;11.52;100.00;98518.13;4979720;28;20018;-73
2021/10/23 05:38:41;;;;;;;28.00;16.65;;;;;;;11.47;100.00;98523.63;4979146;28;20047;-73
2021/10/23 05:41:07;;;;;;;27.23;16.48;;;;;;;11.47;100.00;98526.38;4979467;28;20035;-75
2021/10/23 05:43:32;;;;;;;22.73;15.63;;;;;;;11.35;100.00;98516.88;4979098;28;20082;-78
2021/10/23 05:45:58;;;;;;;64.53;40.08;;;;;;;11.39;100.00;98529.72;4962999;28;20024;-72
2021/10/23 05:48:24;;;;;;;86.82;61.60;;;;;;;11.44;100.00;98535.16;4962937;28;20019;-72
2021/10/23 05:50:49;;;;;;;57.80;34.60;;;;;;;11.45;100.00;98544.19;4962924;28;20095;-73
2021/10/23 05:53:15;;;;;;;21.73;14.20;;;;;;;11.50;100.00;98547.69;4979475;28;20023;-72
2021/10/23 05:55:41;;;;;;;26.00;17.38;;;;;;;11.49;100.00;98556.22;4979447;28;20050;-73
2021/10/23 05:58:07;;;;;;;20.63;12.93;;;;;;;11.50;100.00;98550.44;4979486;28;20011;-78
2021/10/23 06:00:35;;;;;;;216.68;111.88;;;;;;;11.54;100.00;98557.00;4979091;28;20011;-73
2021/10/23 06:03:01;;;;;;;23.48;17.73;;;;;;;11.55;100.00;98555.91;4979701;28;20027;-73
2021/10/23 06:05:27;;;;;;;20.23;12.82;;;;;;;11.52;100.00;98561.97;4979264;28;20039;-73
2021/10/23 06:07:53;;;;;;;20.98;14.85;;;;;;;11.56;100.00;98563.00;4963145;28;20012;-73
2021/10/23 06:10:19;;;;;;;22.67;13.38;;;;;;;11.60;100.00;98574.19;4979387;28;20031;-72
2021/10/23 06:12:44;;;;;;;24.75;16.75;;;;;;;11.61;100.00;98565.72;4979257;28;20035;-75
2021/10/23 06:15:10;;;;;;;20.88;12.98;;;;;;;11.58;100.00;98571.78;4979398;28;21726;-73
2021/10/23 06:17:36;;;;;;;21.95;13.68;;;;;;;11.56;100.00;98581.38;4978753;28;20012;-73
2021/10/23 06:20:03;;;;;;;37.65;22.80;;;;;;;11.57;100.00;98586.56;4979292;28;20008;-72
2021/10/23 06:22:29;;;;;;;31.25;19.42;;;;;;;11.58;100.00;98588.22;4979329;28;20041;-73
2021/10/23 06:24:55;;;;;;;64.75;43.20;;;;;;;11.61;100.00;98593.13;4981068;28;20042;-74
2021/10/23 06:27:20;;;;;;;20.38;11.90;;;;;;;11.69;100.00;98600.72;4982754;28;20023;-72
2021/10/23 06:29:45;;;;;;;18.17;11.10;;;;;;;11.72;100.00;98602.91;4982715;28;20023;-73
2021/10/23 06:32:11;;;;;;;28.65;17.50;;;;;;;11.77;100.00;98605.63;4982965;28;20079;-73
2021/10/23 06:34:40;;;;;;;31.30;20.88;;;;;;;11.82;100.00;98619.28;4982363;28;20019;-77
2021/10/23 06:37:06;;;;;;;22.80;15.05;;;;;;;11.87;100.00;98612.13;4981844;28;20019;-74
2021/10/23 06:39:31;;;;;;;21.50;11.70;;;;;;;11.96;100.00;98611.22;4982286;28;20015;-74
2021/10/23 06:41:57;;;;;;;20.27;11.25;;;;;;;11.96;100.00;98616.69;4977623;28;20070;-79
2021/10/23 06:44:22;;;;;;;17.67;10.57;;;;;;;11.99;100.00;98629.84;4964159;29;20027;-78
2021/10/23 06:46:48;;;;;;;24.00;11.57;;;;;;;12.01;100.00;98635.00;4964551;29;20031;-76
2021/10/23 06:49:13;;;;;;;19.52;11.15;;;;;;;12.02;100.00;98636.66;4980359;28;20181;-80
2021/10/23 06:51:39;;;;;;;20.08;9.57;;;;;;;12.05;100.00;98641.56;4982585;28;20046;-80
2021/10/23 06:54:05;;;;;;;20.50;10.93;;;;;;;12.06;100.00;98656.91;4983371;28;20034;-78
2021/10/23 06:56:31;;;;;;;16.77;10.20;;;;;;;12.15;100.00;98657.94;4990092;28;20010;-78
2021/10/23 06:58:56;;;;;;;17.00;10.65;;;;;;;12.12;100.00;98662.03;4967046;28;20015;-75
2021/10/23 07:01:22;;;;;;;22.90;9.88;;;;;;;12.12;100.00;98664.00;4971932;28;20039;-77
2021/10/23 07:03:48;;;;;;;15.93;9.93;;;;;;;12.12;100.00;98664.00;4944165;29;20052;-74
2021/10/23 07:06:17;;;;;;;17.80;9.88;;;;;;;12.22;100.00;98674.84;4969589;28;20051;-76
2021/10/23 07:08:42;;;;;;;15.43;10.25;;;;;;;12.06;100.00;98670.63;4955016;28;20034;-79
2021/10/23 07:11:08;;;;;;;16.00;11.07;;;;;;;12.10;100.00;98683.47;4949559;28;20022;-78
2021/10/23 07:13:34;;;;;;;35.38;10.63;;;;;;;12.03;100.00;98690.41;4968058;28;20037;-78
2021/10/23 07:16:00;;;;;;;17.88;10.52;;;;;;;12.13;100.00;98698.53;4950255;28;20019;-79
2021/10/23 07:18:25;;;;;;;15.45;9.38;;;;;;;12.07;100.00;98695.00;4951456;28;20089;-80
2021/10/23 07:20:51;;;;;;;13.65;9.27;;;;;;;12.16;100.00;98703.44;4973718;28;20106;-79
2021/10/23 07:23:17;;;;;;;16.33;10.02;;;;;;;12.27;100.00;98700.34;4985984;28;20122;-81
2021/10/23 07:25:44;;;;;;;21.58;11.30;;;;;;;12.47;100.00;98713.03;4980856;28;20043;-73
2021/10/23 07:33:20;;;;;;;15.27;9.20;;;;;;;12.60;100.00;98717.03;5077631;23;20054;-76
2021/10/23 07:35:47;;;;;;;15.23;9.82;;;;;;;12.60;100.00;98719.78;5000569;28;20057;-73
2021/10/23 07:38:12;;;;;;;16.75;10.75;;;;;;;12.59;100.00;98724.44;5000741;28;20070;-73
2021/10/23 07:40:38;;;;;;;16.13;10.55;;;;;;;12.48;100.00;98720.16;5000932;28;20030;-72
2021/10/23 07:43:03;;;;;;;16.90;9.75;;;;;;;12.47;100.00;98725.97;5000860;28;20046;-72
2021/10/23 07:45:29;;;;;;;16.60;9.82;;;;;;;12.41;100.00;98732.56;4989068;28;20408;-79
2021/10/23 07:47:54;;;;;;;16.75;10.35;;;;;;;12.38;100.00;98733.97;4975898;28;20027;-81
2021/10/23 07:50:20;;;;;;;15.48;10.25;;;;;;;12.33;100.00;98734.03;4963272;28;20035;-80
2021/10/23 07:52:46;;;;;;;16.08;9.77;;;;;;;12.29;100.00;98743.94;4976855;28;20027;-79
2021/10/23 07:55:12;;;;;;;15.88;10.32;;;;;;;12.19;100.00;98744.81;4964401;28;20034;-73
2021/10/23 07:57:38;;;;;;;16.27;10.20;;;;;;;12.22;100.00;98747.00;4981269;28;20011;-73
2021/10/23 08:00:06;;;;;;;17.67;9.43;;;;;;;12.20;100.00;98748.38;4973195;28;20011;-73
2021/10/23 08:02:31;;;;;;;14.10;9.65;;;;;;;12.21;100.00;98744.56;4983779;28;20050;-74
2021/10/23 08:04:56;;;;;;;13.65;9.80;;;;;;;12.20;100.00;98757.44;5000427;28;20010;-74
2021/10/23 08:07:22;;;;;;;14.77;10.00;;;;;;;12.17;100.00;98754.44;4989332;28;20075;-78
2021/10/23 08:09:47;;;;;;;13.65;9.57;;;;;;;12.14;100.00;98755.03;4970698;28;20045;-80
2021/10/23 08:12:13;;;;;;;16.15;10.38;;;;;;;12.15;100.00;98762.16;4981818;28;20015;-76
2021/10/23 08:14:39;;;;;;;19.55;10.25;;;;;;;12.13;100.00;98764.34;4983287;28;20017;-73
2021/10/23 08:17:05;;;;;;;14.45;9.50;;;;;;;12.11;100.00;98766.56;4973882;28;20058;-80
2021/10/23 08:19:32;;;;;;;16.38;10.75;;;;;;;12.05;100.00;98770.44;4968390;28;20034;-74
2021/10/23 08:22:01;;;;;;;14.15;9.27;;;;;;;11.97;100.00;98771.84;4979878;28;20019;-72
2021/10/23 08:24:26;;;;;;;13.60;9.43;;;;;;;12.01;100.00;98772.09;4964151;28;20031;-77
2021/10/23 08:26:52;;;;;;;13.85;9.60;;;;;;;11.97;100.00;98792.97;4963954;28;20011;-74
2021/10/23 08:29:17;;;;;;;12.48;8.13;;;;;;;11.58;100.00;98823.03;4985805;28;20078;-80
2021/10/23 08:31:43;;;;;;;12.48;7.00;;;;;;;11.19;100.00;98814.66;4997555;28;20114;-79
2021/10/23 08:34:09;;;;;;;11.52;6.35;;;;;;;11.02;100.00;98820.47;4986858;28;20098;-78
2021/10/23 08:36:34;;;;;;;8.48;5.38;;;;;;;10.94;100.00;98817.44;4970915;28;20015;-78
2021/10/23 08:39:00;;;;;;;9.68;5.25;;;;;;;10.81;100.00;98828.97;4969893;28;20030;-79
2021/10/23 08:41:25;;;;;;;12.40;4.60;;;;;;;10.67;100.00;98835.00;4978359;28;20126;-79
2021/10/23 08:43:52;;;;;;;6.47;3.95;;;;;;;10.55;100.00;98834.47;4973023;28;20042;-77
2021/10/23 08:46:29;;;;;;;6.50;3.90;;;;;;;10.51;100.00;98854.41;4974105;28;20122;-77
2021/10/23 08:48:55;;;;;;;6.18;3.72;;;;;;;10.53;100.00;98846.75;4975377;28;20414;-76
2021/10/23 08:51:25;;;;;;;6.32;3.38;;;;;;;10.34;100.00;98857.41;4973432;28;20035;-76
2021/10/23 08:53:51;;;;;;;6.03;3.42;;;;;;;10.36;100.00;98855.22;4969193;28;20551;-77
2021/10/23 08:56:17;;;;;;;8.10;2.70;;;;;;;10.30;100.00;98855.50;4957236;28;20549;-77
2021/10/23 08:58:42;;;;;;;4.57;2.22;;;;;;;10.09;100.00;98876.44;4956322;28;20043;-76
2021/10/23 09:01:10;;;;;;;5.10;2.60;;;;;;;10.20;100.00;98887.19;4976289;28;20067;-76
2021/10/23 09:03:39;;;;;;;6.60;2.72;;;;;;;10.10;100.00;98895.34;4970023;28;20035;-77
2021/10/23 09:06:10;;;;;;;9.57;3.20;;;;;;;10.02;100.00;98901.31;4974002;28;20015;-78
2021/10/23 09:08:36;;;;;;;6.72;3.20;;;;;;;10.01;100.00;98901.59;4966087;28;20023;-79
2021/10/23 09:11:01;;;;;;;13.48;5.55;;;;;;;9.78;100.00;98904.75;4988674;28;20055;-79
2021/10/23 09:13:32;;;;;;;15.18;6.07;;;;;;;9.69;100.00;98923.59;4996395;28;20103;-80
2021/10/23 09:15:58;;;;;;;4.65;2.35;;;;;;;9.75;100.00;98927.16;4995808;28;20022;-77
2021/10/23 09:18:48;;;;;;;7.85;2.70;;;;;;;9.72;100.00;98933.97;4989292;28;20070;-76
2021/10/23 09:21:23;;;;;;;5.60;2.60;;;;;;;9.74;100.00;98940.03;4976661;28;20022;-78
2021/10/23 09:23:52;;;;;;;7.68;3.28;;;;;;;9.56;100.00;98944.00;5002444;28;21694;-79
2021/10/23 09:26:37;;;;;;;5.93;2.90;;;;;;;9.49;100.00;98945.34;4984542;28;20025;-77
2021/10/23 09:29:20;;;;;;;6.90;3.10;;;;;;;9.24;100.00;98940.50;4991934;28;20011;-76
2021/10/23 09:31:47;;;;;;;16.27;5.85;;;;;;;9.31;100.00;98949.28;4972642;28;20284;-79
2021/10/23 09:34:18;;;;;;;6.15;2.85;;;;;;;9.27;100.00;98941.91;4992180;28;20019;-77
2021/10/23 09:36:54;;;;;;;9.98;3.42;;;;;;;9.20;100.00;98966.69;4985579;28;20074;-79
2021/10/23 09:39:25;;;;;;;35.83;12.68;;;;;;;9.32;100.00;98970.06;4981176;28;20023;-78
2021/10/23 09:42:14;;;;;;;8.40;3.08;;;;;;;9.35;100.00;98972.28;5004001;28;20026;-77
2021/10/23 09:45:06;;;;;;;6.15;2.70;;;;;;;9.33;100.00;98960.78;4984579;28;20030;-76
2021/10/23 09:47:42;;;;;;;3.88;2.20;;;;;;;9.41;100.00;98963.03;4978308;28;20061;-78
2021/10/23 09:50:14;;;;;;;8.52;2.63;;;;;;;9.40;100.00;98971.47;4992737;28;20034;-80
2021/10/23 09:52:57;;;;;;;5.05;2.38;;;;;;;9.59;100.00;98975.41;5002606;28;20046;-77
2021/10/23 09:55:24;;;;;;;5.43;2.35;;;;;;;9.46;100.00;98978.63;5001722;28;20006;-77
2021/10/23 09:58:19;;;;;;;5.10;2.53;;;;;;;9.44;100.00;98978.06;4982325;28;20023;-81
2021/10/23 10:00:47;;;;;;;14.82;4.20;;;;;;;9.62;100.00;98978.44;5002685;28;20039;-79
2021/10/23 10:03:13;;;;;;;4.93;1.90;;;;;;;9.50;100.00;98975.09;5004935;28;20041;-79
2021/10/23 10:05:40;;;;;;;8.30;1.75;;;;;;;9.48;100.00;98982.75;4993559;28;20015;-79
2021/10/23 10:08:14;;;;;;;5.57;2.30;;;;;;;9.51;100.00;98987.69;4968213;28;20015;-75
2021/10/23 10:10:45;;;;;;;7.80;2.38;;;;;;;9.67;100.00;98977.66;4992402;28;20086;-81
2021/10/23 10:13:18;;;;;;;14.60;4.32;;;;;;;9.92;100.00;98979.72;4984193;28;20042;-79
2021/10/23 10:15:48;;;;;;;11.02;4.22;;;;;;;9.91;100.00;98991.72;4978517;28;20077;-77
2021/10/23 10:18:16;;;;;;;9.30;3.40;;;;;;;9.84;100.00;98981.03;4976632;28;20031;-78
2021/10/23 10:20:47;;;;;;;22.60;10.90;;;;;;;9.98;100.00;98995.06;4984491;28;20073;-79
2021/10/23 10:23:18;;;;;;;9.65;2.80;;;;;;;9.74;100.00;98981.00;4980946;28;20085;-78
2021/10/23 10:26:06;;;;;;;7.88;3.05;;;;;;;9.66;100.00;98985.03;4990765;28;20124;-80
2021/10/23 10:28:33;;;;;;;6.55;2.47;;;;;;;9.61;100.00;98990.47;4963969;28;20043;-80
2021/10/23 10:30:59;;;;;;;6.30;2.38;;;;;;;9.71;100.00;98977.97;4980423;28;20035;-79
2021/10/23 10:33:32;;;;;;;4.03;2.03;;;;;;;9.68;100.00;98987.50;4974355;28;20385;-76
2021/10/23 10:38:57;;;;;;;7.50;2.85;;;;;;;9.97;100.00;98991.50;4979306;28;20443;-75
2021/10/23 10:44:07;;;;;;;5.32;2.70;;;;;;;9.87;100.00;98999.63;4978988;28;20034;-75
2021/10/23 10:47:02;;;;;;;6.93;2.30;;;;;;;9.77;100.00;99004.22;4979952;28;20049;-76
2021/10/23 10:49:55;;;;;;;7.63;2.50;;;;;;;9.92;100.00;99009.78;4981261;28;20038;-77
2021/10/23 10:52:39;;;;;;;6.20;2.83;;;;;;;9.98;99.94;99015.00;4983090;28;20116;-77
2021/10/23 10:55:18;;;;;;;4.60;2.22;;;;;;;9.81;99.08;99017.09;4991218;28;20014;-78
2021/10/23 10:58:09;;;;;;;6.63;2.50;;;;;;;9.69;100.00;99011.81;4994110;28;20101;-76
2021/10/23 11:00:52;;;;;;;8.73;3.28;;;;;;;9.81;99.35;99013.53;4976107;28;20041;-77
2021/10/23 11:03:40;;;;;;;7.00;2.47;;;;;;;9.71;98.08;99017.00;4980506;28;20117;-78
2021/10/23 11:06:33;;;;;;;7.75;2.58;;;;;;;9.74;98.64;99021.97;4980835;28;20044;-78
2021/10/23 11:11:47;;;;;;;6.70;2.63;;;;;;;9.56;100.00;99020.47;4979584;28;20134;-78
2021/10/23 11:17:14;;;;;;;10.48;3.08;;;;;;;9.86;98.68;99017.13;4980178;28;20049;-78
2021/10/23 11:19:53;;;;;;;8.50;2.83;;;;;;;9.79;96.48;99021.16;4978198;28;20042;-76
2021/10/23 11:22:28;;;;;;;9.05;2.90;;;;;;;9.77;97.03;98998.75;4965681;28;20038;-78
2021/10/23 11:25:08;;;;;;;8.53;3.97;;;;;;;9.98;94.92;99008.72;4975275;28;20031;-77
2021/10/23 11:27:45;;;;;;;7.38;3.03;;;;;;;9.92;92.06;99012.50;4960259;28;20125;-78
2021/10/23 11:30:30;;;;;;;14.05;5.00;;;;;;;9.84;92.98;99016.56;4982831;28;20054;-80
2021/10/23 11:33:09;;;;;;;8.65;3.08;;;;;;;9.68;93.75;99014.81;4972028;28;20050;-79